Flight Track Log - Related Links

Times and Time Zones

All times are in EDT time to prevent confusion due to time zone crossing. See the USC142 flight status page for this flight to view local times or setup timezone preferences in your user account.

Time Position Orientation Groundspeed Altitude Reporting Facility
EDT Latitude Longitude Course Direction KTS MPH feet Rate Location/Type
Wed 07:26:42 PM 42.9333 -78.7167 90° East 100 115 1,400  Level Buffalo TRACON
Wed 07:27:06 PM 42.9333 -78.7000 90° East 102 117 1,900 1,000 Climbing Buffalo TRACON
Wed 07:28:06 PM 42.9333 -78.6667 90° East 130 150 2,800 762 Climbing Buffalo TRACON
Wed 07:29:12 PM 42.9333 -78.6000 90° East 151 174 3,500 571 Climbing Buffalo TRACON
Wed 07:30:12 PM 42.9167 -78.5500 114° Southeast 151 174 4,000 550 Climbing Buffalo TRACON
Wed 07:31:12 PM 42.9167 -78.4833 90° East 148 170 4,600 600 Climbing Buffalo TRACON
Wed 07:32:12 PM 42.9000 -78.4333 114° Southeast 146 168 5,200 560 Climbing Buffalo TRACON
Wed 07:32:27 PM 42.9050 -78.4261 47° Northeast 144 166 5,300 476 Climbing Cleveland Center
Wed 07:33:15 PM 42.9000 -78.3839 99° East 146 168 5,700 550 Climbing Cleveland Center
Wed 07:34:16 PM 42.8947 -78.3303 98° East 142 163 6,300 645 Climbing Cleveland Center
Wed 07:35:16 PM 42.8917 -78.2764 94° East 142 163 7,000 347 Climbing Cleveland Center
Wed 07:36:17 PM 42.8861 -78.2172 97° East 161 185 7,000  Level Cleveland Center
Wed 07:37:18 PM 42.8806 -78.1522 97° East 169 194 7,000  Level Cleveland Center
Wed 07:38:18 PM 42.8708 -78.0875 102° East 169 194 7,000 50 Level Cleveland Center
Wed 07:39:19 PM 42.8633 -78.0225 99° East 170 196 7,100 49 Climbing Cleveland Center
Wed 07:40:20 PM 42.8578 -77.9633 97° East 169 194 7,100  Level Cleveland Center
Wed 07:41:20 PM 42.8522 -77.8983 97° East 168 193 7,100  Level Cleveland Center
Wed 07:42:21 PM 42.8444 -77.8336 99° East 168 193 7,100  Level Cleveland Center
Wed 07:43:22 PM 42.8344 -77.7689 102° East 171 197 7,100  Level Cleveland Center
Wed 07:44:22 PM 42.8308 -77.7039 94° East 167 192 7,100  Level Cleveland Center
Wed 07:45:23 PM 42.8314 -77.6417 89° East 169 194 7,100  Level Cleveland Center
Wed 07:46:23 PM 42.8297 -77.5764 92° East 171 197 7,100  Level Cleveland Center
Wed 07:47:24 PM 42.8281 -77.5144 92° East 169 194 7,100  Level Cleveland Center
Wed 07:48:24 PM 42.8261 -77.4492 92° East 166 191 7,100  Level Cleveland Center
Wed 07:49:25 PM 42.8244 -77.3842 92° East 162 186 7,100  Level Cleveland Center
Wed 07:50:26 PM 42.8269 -77.3219 87° East 165 190 7,100  Level Cleveland Center
Wed 07:51:32 PM 42.8269 -77.2539 90° East 163 188 7,100  Level Cleveland Center
Wed 07:52:33 PM 42.8231 -77.1889 95° East 167 192 7,100  Level Cleveland Center
Wed 07:53:34 PM 42.8253 -77.1236 87° East 168 193 7,100  Level Cleveland Center
Wed 07:53:58 PM 42.8239 -77.1006 95° East 169 194 7,100  Level Boston Center
Wed 07:54:59 PM 42.8247 -77.0325 89° East 172 198 7,100  Level Boston Center
Wed 07:55:59 PM 42.8250 -76.9675 90° East 173 199 7,100  Level Boston Center
Wed 07:57:00 PM 42.8256 -76.9053 89° East 172 198 7,100  Level Boston Center
Wed 07:58:01 PM 42.8300 -76.8403 85° East 172 198 7,100  Level Boston Center
Wed 07:59:01 PM 42.8367 -76.7758 82° East 171 197 7,100  Level Boston Center
Wed 08:00:08 PM 42.8436 -76.7053 82° East 168 193 7,100  Level Boston Center
Wed 08:01:03 PM 42.8478 -76.6461 84° East 169 194 7,100  Level Boston Center
Wed 08:02:03 PM 42.8522 -76.5814 85° East 171 197 7,100  Level Boston Center
Wed 08:03:04 PM 42.8589 -76.5194 82° East 170 196 7,100  Level Boston Center
Wed 08:04:05 PM 42.8611 -76.4542 87° East 171 197 7,100  Level Boston Center
Wed 08:05:06 PM 42.8656 -76.3894 85° East 168 193 7,100  Level Boston Center
Wed 08:06:06 PM 42.8678 -76.3244 87° East 167 192 7,100  Level Boston Center
Wed 08:07:06 PM 42.8742 -76.2597 82° East 172 198 7,100  Level Boston Center
Wed 08:08:07 PM 42.8761 -76.1975 88° East 169 194 7,100  Level Boston Center
Wed 08:09:08 PM 42.8803 -76.1325 85° East 162 186 7,100  Level Boston Center
Wed 08:10:08 PM 42.8844 -76.0675 85° East 165 190 7,100  Level Boston Center
Wed 08:11:09 PM 42.8883 -76.0083 85° East 164 189 7,100  Level Boston Center
Wed 08:12:10 PM 42.8883 -75.9431 90° East 162 186 7,100  Level Boston Center
Wed 08:13:10 PM 42.8903 -75.8778 88° East 166 191 7,100  Level Boston Center
Wed 08:14:11 PM 42.8944 -75.8158 85° East 168 193 7,100  Level Boston Center
Wed 08:15:11 PM 42.8983 -75.7536 85° East 171 197 7,100  Level Boston Center
Wed 08:16:12 PM 42.9000 -75.6914 88° East 170 196 7,100  Level Boston Center
Wed 08:17:13 PM 42.9039 -75.6292 85° East 167 192 7,100  Level Boston Center
Wed 08:18:13 PM 42.9056 -75.5639 88° East 167 192 7,100  Level Boston Center
Wed 08:19:14 PM 42.9117 -75.4933 83° East 170 196 7,100  Level Boston Center
Wed 08:20:08 PM 42.9111 -75.4394 91° East 175 201 7,100  Level Boston Center
Wed 08:21:09 PM 42.9172 -75.3689 83° East 174 200 7,100  Level Boston Center
Wed 08:22:10 PM 42.9208 -75.3039 86° East 174 200 7,100  Level Boston Center
Wed 08:23:10 PM 42.9267 -75.2417 83° East 170 196 7,100  Level Boston Center
Wed 08:24:11 PM 42.9281 -75.1767 88° East 170 196 7,100  Level Boston Center
Wed 08:25:12 PM 42.9319 -75.1058 86° East 173 199 7,100 63 Level Boston Center
Wed 08:25:46 PM 42.9347 -75.0719 84° East 170 196 7,200 63 Climbing Boston Center
Wed 08:26:47 PM 42.9322 -75.0067 93° East 174 200 7,200  Level Boston Center
Wed 08:27:47 PM 42.9378 -74.9444 83° East 172 198 7,200  Level Boston Center
Wed 08:28:48 PM 42.9392 -74.8736 88° East 172 198 7,200  Level Boston Center
Wed 08:29:48 PM 42.9386 -74.8083 91° East 171 197 7,200  Level Boston Center
Wed 08:30:49 PM 42.9419 -74.7433 86° East 175 201 7,200  Level Boston Center
Wed 08:31:50 PM 42.9475 -74.6781 83° East 174 200 7,200  Level Boston Center
Wed 08:32:50 PM 42.9508 -74.6103 86° East 171 197 7,200  Level Boston Center
Wed 08:33:51 PM 42.9539 -74.5478 86° East 171 197 7,200  Level Boston Center
Wed 08:34:52 PM 42.9553 -74.4856 88° East 172 198 7,200  Level Boston Center
Wed 08:35:52 PM 42.9586 -74.4119 86° East 174 200 7,200  Level Boston Center
Wed 08:36:53 PM 42.9658 -74.3469 81° East 172 198 7,200 -49 Level Boston Center
Wed 08:37:54 PM 42.9650 -74.2817 91° East 177 204 7,100 -49 Descending Boston Center
Wed 08:38:55 PM 42.9681 -74.2164 86° East 174 200 7,100  Level Boston Center
Wed 08:39:55 PM 42.9692 -74.1483 89° East 175 201 7,100  Level Boston Center
Wed 08:40:56 PM 42.9658 -74.0828 94° East 174 200 7,100  Level Boston Center
Wed 08:41:57 PM 42.9564 -74.0203 102° East 165 190 7,100  Level Boston Center
Wed 08:42:57 PM 42.9447 -73.9603 105° East 165 190 7,100  Level Boston Center
Wed 08:43:58 PM 42.9308 -73.8947 106° East 166 191 7,100  Level Boston Center
Wed 08:45:05 PM 42.9192 -73.8294 104° East 168 193 7,100  Level Boston Center
Wed 08:45:59 PM 42.9075 -73.7694 105° East 168 193 7,100  Level Boston Center
Wed 08:47:00 PM 42.8956 -73.7097 105° East 167 192 7,100  Level Boston Center
Wed 08:48:00 PM 42.8839 -73.6472 104° East 166 191 7,100  Level Boston Center
Wed 08:49:01 PM 42.8739 -73.5875 103° East 166 191 7,100  Level Boston Center
Wed 08:50:02 PM 42.8661 -73.5278 100° East 167 192 7,100  Level Boston Center
Wed 08:51:02 PM 42.8522 -73.4653 107° East 169 194 7,100  Level Boston Center
Wed 08:52:03 PM 42.8403 -73.4028 105° East 170 196 7,100  Level Boston Center
Wed 08:53:04 PM 42.8303 -73.3347 101° East 171 197 7,100  Level Boston Center
Wed 08:53:51 PM 42.8244 -73.3033 104° East 169 194 7,100 -56 Level Boston Center
Wed 08:54:51 PM 42.8125 -73.2325 103° East 174 200 7,000 -50 Descending Boston Center
Wed 08:55:51 PM 42.8003 -73.1672 104° East 168 193 7,000  Level Boston Center
Wed 08:56:51 PM 42.7922 -73.1106 101° East 162 186 7,000  Level Boston Center
Wed 08:57:51 PM 42.7803 -73.0456 104° East 162 186 7,000  Level Boston Center
Wed 08:58:51 PM 42.7700 -72.9917 105° East 162 186 7,000  Level Boston Center
Wed 08:59:51 PM 42.7600 -72.9322 103° East 162 186 7,000  Level Boston Center
Wed 09:01:03 PM 42.7436 -72.8614 107° East 162 186 7,000  Level Boston Center
Wed 09:02:03 PM 42.7311 -72.8019 106° East 162 186 7,000  Level Boston Center
Wed 09:03:15 PM 42.7208 -72.7397 103° East 162 186 7,000  Level Boston Center
Wed 09:04:15 PM 42.7086 -72.6689 103° East 162 186 7,000  Level Boston Center
Wed 09:05:15 PM 42.6961 -72.6067 105° East 162 186 7,000  Level Boston Center
Wed 09:06:15 PM 42.6858 -72.5475 103° East 162 186 7,000  Level Boston Center
Wed 09:07:15 PM 42.6733 -72.4881 106° East 162 186 7,000  Level Boston Center
Wed 09:08:15 PM 42.6631 -72.4258 103° East 162 186 7,000  Level Boston Center
Wed 09:09:15 PM 42.6506 -72.3667 106° East 162 186 7,000  Level Boston Center
Wed 09:10:15 PM 42.6400 -72.3047 103° East 167 192 7,000  Level Boston Center
Wed 09:11:15 PM 42.6253 -72.2369 106° East 173 199 7,000  Level Boston Center
Wed 09:12:15 PM 42.6128 -72.1692 104° East 173 199 7,000 -50 Level Boston Center
Wed 09:13:15 PM 42.6022 -72.1131 104° East 167 192 6,900 -400 Descending Boston Center
Wed 09:14:15 PM 42.5872 -72.0397 106° East 167 192 6,200 -450 Descending Boston Center
Wed 09:15:15 PM 42.5744 -71.9806 106° East 167 192 6,000 -100 Descending Boston Center
Wed 09:16:15 PM 42.5617 -71.9158 105° East 167 192 6,000  Level Boston Center
Wed 09:17:15 PM 42.5531 -71.8681 104° East 162 186 6,000  Level Boston Center
Wed 09:18:15 PM 42.5528 -71.7919 90° East 162 186 6,000 -300 Level Boston Center
Wed 09:19:15 PM 42.5567 -71.7297 85° East 169 194 5,400 -750 Descending Boston Center
Wed 09:20:15 PM 42.5581 -71.6536 89° East 179 206 4,500 -950 Descending Boston Center
Wed 09:21:15 PM 42.5453 -71.5975 107° East 179 206 3,500 -672 Descending Boston Center
Wed 09:22:20 PM 42.5167 -71.5333 121° Southeast 157 181 3,100 -336 Descending KA90
Wed 09:23:38 PM 42.4833 -71.4667 124° Southeast 156 180 2,700 -478 Descending KA90
Wed 09:24:38 PM 42.4833 -71.4167 90° East 156 180 2,000 -667 Descending KA90
Wed 09:25:35 PM 42.4833 -71.3667 90° East 154 177 1,400 -650 Descending KA90
Wed 09:26:38 PM 42.4667 -71.3167 114° Southeast 112 129 700 -667 Descending KA90
Wed 09:33:00 PM 42.4699 -71.2890 101° East  Level Estimated
Wed 09:40:00 PM 42.4667 -71.2833 285° West  Level FlightAware Approximate
Wed 09:41:00 PM 42.4699 -71.2890 285° West  Level Estimated
Wed 09:42:00 PM 42.4667 -71.2833 285° West  Level FlightAware Approximate
Wed 09:43:00 PM 42.4699 -71.2890 285° West  Level Estimated

Login

Don't have an account? Register now (free) for customized features, flight alerts, and more!